createdAt,value
2018-05-03T00:00:41.894Z,97516
2018-05-03T00:03:10.789Z,97522
2018-05-03T00:05:39.619Z,97525
2018-05-03T00:08:08.541Z,97529
2018-05-03T00:10:37.436Z,97531
2018-05-03T00:13:07.012Z,97534
2018-05-03T00:15:35.930Z,97541
2018-05-03T00:18:04.710Z,97546
2018-05-03T00:20:33.498Z,97544
2018-05-03T00:23:02.307Z,97548
2018-05-03T00:25:31.104Z,97548
2018-05-03T00:27:59.915Z,97548
2018-05-03T00:30:28.823Z,97551
2018-05-03T00:32:57.730Z,97547
2018-05-03T00:35:27.302Z,97548
2018-05-03T00:37:56.128Z,97544
2018-05-03T00:40:24.960Z,97542
2018-05-03T00:42:53.740Z,97538
2018-05-03T00:45:22.572Z,97538
2018-05-03T00:47:52.133Z,97535
2018-05-03T00:50:20.951Z,97532
2018-05-03T00:52:49.858Z,97530
2018-05-03T00:55:19.452Z,97518
2018-05-03T00:57:48.292Z,97518
2018-05-03T01:00:17.101Z,97511
2018-05-03T01:02:45.889Z,97507
2018-05-03T01:05:14.687Z,97509
2018-05-03T01:07:44.258Z,97507
2018-05-03T01:10:13.052Z,97512
2018-05-03T01:12:41.906Z,97518
2018-05-03T01:15:10.701Z,97521
2018-05-03T01:17:40.253Z,97528
2018-05-03T01:20:09.042Z,97530
2018-05-03T01:22:37.880Z,97543
2018-05-03T01:25:06.775Z,97542
2018-05-03T01:27:36.388Z,97547
2018-05-03T01:30:05.981Z,97545
2018-05-03T01:32:35.576Z,97539
2018-05-03T01:35:22.411Z,97534
2018-05-03T01:37:51.970Z,97537
2018-05-03T01:40:20.829Z,97543
2018-05-03T01:42:49.644Z,97539
2018-05-03T01:45:18.466Z,97540
2018-05-03T01:47:47.248Z,97545
2018-05-03T01:50:16.168Z,97556
2018-05-03T01:52:45.757Z,97573
2018-05-03T01:55:14.575Z,97586
2018-05-03T01:57:43.383Z,97595
2018-05-03T02:00:12.200Z,97603
2018-05-03T02:02:40.991Z,97601
2018-05-03T02:05:09.901Z,97600
2018-05-03T02:07:38.829Z,97601
2018-05-03T02:10:08.465Z,97600
2018-05-03T02:12:37.321Z,97605
2018-05-03T02:15:06.139Z,97608
2018-05-03T02:17:35.383Z,97608
2018-05-03T02:20:04.987Z,97608
2018-05-03T02:22:33.747Z,97608
2018-05-03T02:25:02.569Z,97601
2018-05-03T02:27:31.494Z,97596
2018-05-03T02:30:01.061Z,97594
2018-05-03T02:32:29.876Z,97591
2018-05-03T02:34:59.459Z,97577
2018-05-03T02:37:29.035Z,97579
2018-05-03T02:39:57.901Z,97578
2018-05-03T02:42:26.644Z,97584
2018-05-03T02:44:56.208Z,97586
2018-05-03T02:47:24.989Z,97587
2018-05-03T02:49:53.798Z,97593
2018-05-03T02:52:22.590Z,97594
2018-05-03T02:54:51.520Z,97594
2018-05-03T02:57:38.182Z,97593
2018-05-03T03:00:30.691Z,97593
2018-05-03T03:03:23.026Z,97592
2018-05-03T03:06:09.712Z,97598
2018-05-03T03:12:33.740Z,97596
2018-05-03T03:15:26.118Z,97596
2018-05-03T03:18:12.876Z,97600
2018-05-03T03:21:05.070Z,97604
2018-05-03T03:23:57.515Z,97615
2018-05-03T03:33:39.141Z,97602
2018-05-03T03:36:25.795Z,97596
2018-05-03T03:39:13.153Z,97602
2018-05-03T03:41:45.843Z,97606
2018-05-03T03:44:32.497Z,97612
2018-05-03T03:47:01.283Z,97615
2018-05-03T03:49:30.117Z,97619
2018-05-03T03:51:59.692Z,97617
2018-05-03T03:54:28.507Z,97617
2018-05-03T03:56:57.385Z,97622
2018-05-03T03:59:26.924Z,97628
2018-05-03T04:01:55.771Z,97629
2018-05-03T04:04:25.409Z,97629
2018-05-03T04:06:54.804Z,97635
2018-05-03T04:09:23.637Z,97634
2018-05-03T04:11:53.217Z,97636
2018-05-03T04:14:22.135Z,97636
2018-05-03T04:16:51.151Z,97637
2018-05-03T04:19:38.447Z,97636
2018-05-03T04:22:25.367Z,97635
2018-05-03T04:25:12.807Z,97640
2018-05-03T04:27:41.618Z,97649
2018-05-03T04:30:10.427Z,97656
2018-05-03T04:32:39.445Z,97660
2018-05-03T04:35:08.295Z,97663
2018-05-03T04:37:37.079Z,97660
2018-05-03T04:40:06.822Z,97660
2018-05-03T04:42:35.625Z,97663
2018-05-03T04:45:04.453Z,97673
2018-05-03T04:47:33.320Z,97669
2018-05-03T04:50:02.889Z,97672
2018-05-03T04:52:31.728Z,97675
2018-05-03T04:55:01.309Z,97677
2018-05-03T04:57:30.861Z,97680
2018-05-03T04:59:59.655Z,97686
2018-05-03T05:02:28.471Z,97686
2018-05-03T05:04:57.266Z,97690
2018-05-03T05:07:26.085Z,97694
2018-05-03T05:09:54.938Z,97698
2018-05-03T05:12:24.547Z,97700
2018-05-03T05:14:54.150Z,97702
2018-05-03T05:17:23.706Z,97702
2018-05-03T05:22:35.437Z,97721
2018-05-03T05:25:04.259Z,97720
2018-05-03T05:27:33.071Z,97719
2018-05-03T05:30:01.899Z,97725
2018-05-03T05:32:32.775Z,97731
2018-05-03T05:35:01.570Z,97726
2018-05-03T05:37:30.376Z,97729
2018-05-03T05:39:59.183Z,97725
2018-05-03T05:42:28.778Z,97724
2018-05-03T05:44:57.585Z,97736
2018-05-03T05:47:26.392Z,97733
2018-05-03T05:49:55.217Z,97737
2018-05-03T05:52:24.028Z,97744
2018-05-03T05:54:53.707Z,97751
2018-05-03T05:57:22.520Z,97751
2018-05-03T05:59:51.447Z,97755
2018-05-03T06:02:21.016Z,97755
2018-05-03T06:04:49.844Z,97758
2018-05-03T06:07:18.642Z,97757
2018-05-03T06:09:47.457Z,97758
2018-05-03T06:12:16.359Z,97756
2018-05-03T06:14:45.969Z,97758
2018-05-03T06:17:14.830Z,97758
2018-05-03T06:19:44.337Z,97755
2018-05-03T06:22:13.161Z,97761
2018-05-03T06:24:42.072Z,97757
2018-05-03T06:27:10.900Z,97763
2018-05-03T06:29:39.672Z,97763
2018-05-03T06:32:09.251Z,97762
2018-05-03T06:34:39.008Z,97763
2018-05-03T06:37:07.849Z,97760
2018-05-03T06:39:37.405Z,97763
2018-05-03T06:42:06.253Z,97768
2018-05-03T06:44:35.056Z,97768
2018-05-03T06:47:03.905Z,97773
2018-05-03T06:49:32.786Z,97771
2018-05-03T06:52:02.377Z,97774
2018-05-03T06:54:31.973Z,97778
2018-05-03T06:57:01.597Z,97779
2018-05-03T06:59:31.205Z,97784
2018-05-03T07:02:00.765Z,97779
2018-05-03T07:04:29.757Z,97780
2018-05-03T07:06:58.483Z,97776
2018-05-03T07:09:27.286Z,97781
2018-05-03T07:11:56.149Z,97784
2018-05-03T07:14:25.703Z,97786
2018-05-03T07:16:54.525Z,97798
2018-05-03T07:19:24.092Z,97794
2018-05-03T07:21:53.021Z,97808
2018-05-03T07:24:22.598Z,97799
2018-05-03T07:26:51.411Z,97802
2018-05-03T07:29:21.240Z,97794
2018-05-03T07:31:50.008Z,97792
2018-05-03T07:34:18.923Z,97800
2018-05-03T07:36:47.786Z,97802
2018-05-03T07:39:17.389Z,97802
2018-05-03T07:41:47.300Z,97802
2018-05-03T07:44:16.882Z,97801
2018-05-03T07:46:45.690Z,97805
2018-05-03T07:49:14.474Z,97803
2018-05-03T07:51:43.330Z,97797
2018-05-03T07:54:12.936Z,97805
2018-05-03T07:56:41.766Z,97807
2018-05-03T07:59:10.581Z,97815
2018-05-03T08:01:39.382Z,97817
2018-05-03T08:04:08.192Z,97823
2018-05-03T08:06:37.027Z,97824
2018-05-03T08:09:06.620Z,97817
2018-05-03T08:11:36.216Z,97813
2018-05-03T08:14:04.999Z,97815
2018-05-03T08:16:33.798Z,97816
2018-05-03T08:19:03.384Z,97814
2018-05-03T08:21:32.257Z,97822
2018-05-03T08:24:01.043Z,97825
2018-05-03T08:26:29.849Z,97822
2018-05-03T08:28:58.644Z,97828
2018-05-03T08:31:27.455Z,97830
2018-05-03T08:33:56.265Z,97823
2018-05-03T08:36:25.088Z,97829
2018-05-03T08:38:53.909Z,97827
2018-05-03T08:41:22.734Z,97823
2018-05-03T08:43:51.535Z,97822
2018-05-03T08:46:20.379Z,97822
2018-05-03T08:48:49.978Z,97820
2018-05-03T08:51:19.540Z,97822
2018-05-03T08:53:48.357Z,97824
2018-05-03T08:56:18.223Z,97822
2018-05-03T08:58:47.092Z,97820
2018-05-03T09:01:15.926Z,97830
2018-05-03T09:03:45.455Z,97829
2018-05-03T09:06:15.048Z,97832
2018-05-03T09:08:43.893Z,97836
2018-05-03T09:11:12.717Z,97830
2018-05-03T09:13:41.527Z,97832
2018-05-03T09:16:10.387Z,97831
2018-05-03T09:18:39.268Z,97829
2018-05-03T09:21:08.075Z,97823
2018-05-03T09:23:36.901Z,97830
2018-05-03T09:26:05.690Z,97829
2018-05-03T09:28:35.251Z,97827
2018-05-03T09:31:04.053Z,97826
2018-05-03T09:33:32.976Z,97836
2018-05-03T09:36:02.550Z,97837
2018-05-03T09:38:31.336Z,97842
2018-05-03T09:41:00.152Z,97844
2018-05-03T09:43:28.974Z,97846
2018-05-03T09:45:57.803Z,97853
2018-05-03T09:48:27.382Z,97856
2018-05-03T09:50:56.172Z,97853
2018-05-03T09:53:25.763Z,97859
2018-05-03T09:55:54.587Z,97863
2018-05-03T09:58:23.406Z,97866
2018-05-03T10:00:52.964Z,97858
2018-05-03T10:03:21.790Z,97865
2018-05-03T10:05:50.618Z,97868
2018-05-03T10:08:19.412Z,97863
2018-05-03T10:10:48.950Z,97868
2018-05-03T10:13:17.883Z,97878
2018-05-03T10:15:46.572Z,97867
2018-05-03T10:18:16.356Z,97871
2018-05-03T10:20:45.152Z,97873
2018-05-03T10:23:14.728Z,97878
2018-05-03T10:25:43.646Z,97882
2018-05-03T10:28:13.356Z,97878
2018-05-03T10:30:42.183Z,97873
2018-05-03T10:33:11.744Z,97877
2018-05-03T10:35:41.269Z,97866
2018-05-03T10:38:10.828Z,97870
2018-05-03T10:40:41.150Z,97866
2018-05-03T10:43:09.965Z,97868
2018-05-03T10:45:38.794Z,97864
2018-05-03T10:48:08.404Z,97863
2018-05-03T10:50:37.970Z,97868
2018-05-03T10:53:06.791Z,97861
2018-05-03T10:55:36.340Z,97857
2018-05-03T10:58:05.171Z,97853
2018-05-03T11:00:34.105Z,97858
2018-05-03T11:03:03.769Z,97859
2018-05-03T11:05:32.728Z,97865
2018-05-03T11:08:01.473Z,97860
2018-05-03T11:10:31.041Z,97856
2018-05-03T11:12:59.865Z,97854
2018-05-03T11:15:29.429Z,97851
2018-05-03T11:17:58.222Z,97850
2018-05-03T11:20:27.021Z,97846
2018-05-03T11:22:55.839Z,97848
2018-05-03T11:25:25.403Z,97842
2018-05-03T11:27:54.991Z,97838
2018-05-03T11:30:23.937Z,97849
2018-05-03T11:32:52.747Z,97844
2018-05-03T11:35:21.630Z,97852
2018-05-03T11:37:51.225Z,97841
2018-05-03T11:40:20.060Z,97845
2018-05-03T11:42:48.873Z,97850
2018-05-03T11:45:17.676Z,97840
2018-05-03T11:47:46.481Z,97845
2018-05-03T11:50:15.313Z,97840
2018-05-03T11:52:44.189Z,97846
2018-05-03T11:55:13.508Z,97844
2018-05-03T11:57:43.091Z,97842
2018-05-03T12:00:11.916Z,97840
2018-05-03T12:02:41.448Z,97838
2018-05-03T12:05:10.316Z,97836
2018-05-03T12:07:39.117Z,97836
2018-05-03T12:10:07.973Z,97837
2018-05-03T12:12:37.509Z,97834
2018-05-03T12:15:06.363Z,97847
2018-05-03T12:17:35.182Z,97839
2018-05-03T12:20:05.611Z,97829
2018-05-03T12:22:34.434Z,97830
2018-05-03T12:25:03.210Z,97825
2018-05-03T12:27:32.073Z,97829
2018-05-03T12:30:01.677Z,97829
2018-05-03T12:32:30.539Z,97829
2018-05-03T12:35:00.163Z,97826
2018-05-03T12:37:29.750Z,97823
2018-05-03T12:39:59.358Z,97832
2018-05-03T12:42:28.158Z,97823
2018-05-03T12:44:56.950Z,97816
2018-05-03T12:47:25.754Z,97819
2018-05-03T12:49:54.550Z,97818
2018-05-03T12:52:23.416Z,97820
2018-05-03T12:54:52.291Z,97818
2018-05-03T12:57:21.024Z,97820
2018-05-03T12:59:49.842Z,97811
2018-05-03T13:02:19.442Z,97821
2018-05-03T13:04:48.268Z,97812
2018-05-03T13:07:17.060Z,97802
2018-05-03T13:09:45.893Z,97808
2018-05-03T13:12:14.722Z,97812
2018-05-03T13:14:43.545Z,97806
2018-05-03T13:17:13.099Z,97807
2018-05-03T13:19:41.961Z,97802
2018-05-03T13:22:10.771Z,97803
2018-05-03T13:24:39.596Z,97798
2018-05-03T13:27:09.194Z,97794
2018-05-03T13:29:37.988Z,97791
2018-05-03T13:32:07.692Z,97797
2018-05-03T13:34:37.268Z,97794
2018-05-03T13:37:06.094Z,97792
2018-05-03T13:39:35.694Z,97795
2018-05-03T13:42:04.499Z,97787
2018-05-03T13:44:34.059Z,97793
2018-05-03T13:47:03.640Z,97791
2018-05-03T13:49:32.466Z,97790
2018-05-03T13:52:02.034Z,97789
2018-05-03T13:54:30.865Z,97788
2018-05-03T13:56:59.676Z,97785
2018-05-03T13:59:28.508Z,97781
2018-05-03T14:01:58.120Z,97786
2018-05-03T14:04:27.735Z,97787
2018-05-03T14:06:57.366Z,97791
2018-05-03T14:09:26.130Z,97788
2018-05-03T14:11:55.737Z,97780
2018-05-03T14:14:25.332Z,97781
2018-05-03T14:16:54.185Z,97783
2018-05-03T14:19:23.804Z,97779
2018-05-03T14:21:53.402Z,97781
2018-05-03T14:24:23.028Z,97778
2018-05-03T14:26:52.012Z,97770
2018-05-03T14:29:20.847Z,97769
2018-05-03T14:31:49.635Z,97774
2018-05-03T14:34:18.491Z,97774
2018-05-03T14:36:48.050Z,97782
2018-05-03T14:39:18.626Z,97781
2018-05-03T14:41:48.296Z,97787
2018-05-03T14:44:17.095Z,97790
2018-05-03T14:46:46.270Z,97794
2018-05-03T14:49:15.108Z,97791
2018-05-03T14:51:44.007Z,97786
2018-05-03T14:54:13.610Z,97797
2018-05-03T14:56:42.448Z,97794
2018-05-03T14:59:12.030Z,97802
2018-05-03T15:01:40.828Z,97803
2018-05-03T15:04:10.386Z,97803
2018-05-03T15:06:40.808Z,97796
2018-05-03T15:09:10.468Z,97802
2018-05-03T15:11:39.285Z,97802
2018-05-03T15:14:08.863Z,97805
2018-05-03T15:16:37.696Z,97808
2018-05-03T15:19:06.473Z,97813
2018-05-03T15:21:36.067Z,97812
2018-05-03T15:24:04.916Z,97810
2018-05-03T15:26:33.704Z,97811
2018-05-03T15:29:02.525Z,97819
2018-05-03T15:31:31.327Z,97821
2018-05-03T15:34:00.243Z,97816
2018-05-03T15:36:29.805Z,97822
2018-05-03T15:38:58.729Z,97820
2018-05-03T15:41:28.305Z,97822
2018-05-03T15:43:57.119Z,97824
2018-05-03T15:46:26.456Z,97824
2018-05-03T15:48:56.493Z,97825
2018-05-03T15:51:25.531Z,97819
2018-05-03T15:53:54.312Z,97826
2018-05-03T15:56:23.443Z,97827
2018-05-03T15:58:52.253Z,97829
2018-05-03T16:01:21.038Z,97825
2018-05-03T16:03:50.606Z,97821
2018-05-03T16:06:19.424Z,97829
2018-05-03T16:08:48.987Z,97829
2018-05-03T16:11:17.823Z,97832
2018-05-03T16:13:47.373Z,97830
2018-05-03T16:16:17.603Z,97835
2018-05-03T16:18:46.436Z,97842
2018-05-03T16:21:15.253Z,97837
2018-05-03T16:23:44.078Z,97839
2018-05-03T16:26:13.682Z,97843
2018-05-03T16:28:43.238Z,97843
2018-05-03T16:31:12.032Z,97846
2018-05-03T16:33:40.834Z,97845
2018-05-03T16:36:10.404Z,97850
2018-05-03T16:38:39.984Z,97855
2018-05-03T16:41:08.812Z,97855
2018-05-03T16:43:38.355Z,97853
2018-05-03T16:46:07.156Z,97854
2018-05-03T16:48:36.812Z,97857
2018-05-03T16:51:05.606Z,97861
2018-05-03T16:53:35.178Z,97857
2018-05-03T16:56:04.044Z,97849
2018-05-03T16:58:32.881Z,97857
2018-05-03T17:01:02.584Z,97858
2018-05-03T17:03:31.415Z,97868
2018-05-03T17:06:00.275Z,97866
2018-05-03T17:08:29.081Z,97864
2018-05-03T17:10:57.898Z,97867
2018-05-03T17:13:27.491Z,97866
2018-05-03T17:15:56.272Z,97868
2018-05-03T17:18:25.096Z,97873
2018-05-03T17:20:53.926Z,97878
2018-05-03T17:23:22.719Z,97878
2018-05-03T17:25:51.558Z,97882
2018-05-03T17:28:21.132Z,97888
2018-05-03T17:30:50.229Z,97901
2018-05-03T17:33:19.042Z,97895
2018-05-03T17:35:48.601Z,97903
2018-05-03T17:38:17.412Z,97905
2018-05-03T17:40:46.984Z,97907
2018-05-03T17:43:15.786Z,97908
2018-05-03T17:45:44.608Z,97911
2018-05-03T17:48:13.569Z,97913
2018-05-03T17:50:42.484Z,97925
2018-05-03T17:53:12.047Z,97932
2018-05-03T17:55:40.869Z,97928
2018-05-03T17:58:10.480Z,97931
2018-05-03T18:00:40.067Z,97931
2018-05-03T18:03:08.912Z,97936
2018-05-03T18:05:37.751Z,97945
2018-05-03T18:08:07.340Z,97943
2018-05-03T18:10:36.148Z,97949
2018-05-03T18:13:04.976Z,97950
2018-05-03T18:15:33.785Z,97967
2018-05-03T18:18:02.608Z,97972
2018-05-03T18:20:32.187Z,97982
2018-05-03T18:23:01.731Z,97984
2018-05-03T18:25:31.450Z,97990
2018-05-03T18:28:00.284Z,97991
2018-05-03T18:30:29.139Z,97997
2018-05-03T18:32:58.689Z,97995
2018-05-03T18:35:27.517Z,98005
2018-05-03T18:37:56.350Z,98005
2018-05-03T18:40:25.208Z,98013
2018-05-03T18:42:54.007Z,98019
2018-05-03T18:45:22.839Z,98028
2018-05-03T18:47:51.739Z,98032
2018-05-03T18:50:20.559Z,98042
2018-05-03T18:52:49.431Z,98040
2018-05-03T18:55:18.253Z,98048
2018-05-03T18:57:47.056Z,98044
2018-05-03T19:00:15.865Z,98051
2018-05-03T19:02:44.721Z,98056
2018-05-03T19:05:13.523Z,98057
2018-05-03T19:07:42.394Z,98056
2018-05-03T19:10:11.211Z,98062
2018-05-03T19:12:40.770Z,98069
2018-05-03T19:15:10.383Z,98075
2018-05-03T19:17:39.213Z,98073
2018-05-03T19:20:08.033Z,98074
2018-05-03T19:22:36.868Z,98078
2018-05-03T19:25:06.489Z,98076
2018-05-03T19:27:35.308Z,98078
2018-05-03T19:30:04.202Z,98079
2018-05-03T19:32:33.074Z,98081
2018-05-03T19:35:01.889Z,98091
2018-05-03T19:37:30.697Z,98091
2018-05-03T19:39:59.490Z,98096
2018-05-03T19:42:29.109Z,98093
2018-05-03T19:44:58.713Z,98095
2018-05-03T19:47:27.729Z,98099
2018-05-03T19:50:07.084Z,98093
2018-05-03T19:52:35.916Z,98100
2018-05-03T19:55:04.786Z,98101
2018-05-03T19:57:33.632Z,98104
2018-05-03T20:00:02.448Z,98109
2018-05-03T20:02:31.231Z,98108
2018-05-03T20:05:00.507Z,98109
2018-05-03T20:07:29.287Z,98111
2018-05-03T20:09:58.121Z,98108
2018-05-03T20:12:27.717Z,98111
2018-05-03T20:14:57.285Z,98118
2018-05-03T20:17:26.126Z,98116
2018-05-03T20:20:07.635Z,98120
2018-05-03T20:22:36.474Z,98119
2018-05-03T20:25:05.273Z,98125
2018-05-03T20:27:34.161Z,98127
2018-05-03T20:30:02.967Z,98129
2018-05-03T20:32:31.783Z,98132
2018-05-03T20:35:00.619Z,98133
2018-05-03T20:37:29.396Z,98136
2018-05-03T20:39:58.239Z,98141
2018-05-03T20:42:27.817Z,98143
2018-05-03T20:44:56.751Z,98147
2018-05-03T20:47:25.574Z,98148
2018-05-03T20:50:07.518Z,98146
2018-05-03T20:52:37.091Z,98151
2018-05-03T20:55:05.928Z,98157
2018-05-03T20:57:34.906Z,98151
2018-05-03T21:00:05.586Z,98152
2018-05-03T21:02:35.140Z,98152
2018-05-03T21:05:03.980Z,98155
2018-05-03T21:07:32.766Z,98156
2018-05-03T21:10:01.616Z,98159
2018-05-03T21:12:30.505Z,98165
2018-05-03T21:14:59.348Z,98168
2018-05-03T21:17:28.187Z,98169
2018-05-03T21:20:05.357Z,98162
2018-05-03T21:22:34.156Z,98173
2018-05-03T21:25:03.022Z,98171
2018-05-03T21:27:31.863Z,98170
2018-05-03T21:30:01.429Z,98172
2018-05-03T21:32:30.286Z,98166
2018-05-03T21:34:59.100Z,98162
2018-05-03T21:37:27.928Z,98164
2018-05-03T21:39:56.749Z,98165
2018-05-03T21:42:25.659Z,98164
2018-05-03T21:44:55.278Z,98163
2018-05-03T21:47:24.060Z,98164
2018-05-03T21:52:32.987Z,98170
2018-05-03T21:55:01.804Z,98170
2018-05-03T21:57:30.614Z,98169
2018-05-03T21:59:59.428Z,98172
2018-05-03T22:02:29.049Z,98167
2018-05-03T22:04:57.853Z,98168
2018-05-03T22:07:26.637Z,98169
2018-05-03T22:09:55.491Z,98167
2018-05-03T22:12:25.070Z,98159
2018-05-03T22:14:54.677Z,98154
2018-05-03T22:17:23.514Z,98165
2018-05-03T22:19:52.318Z,98168
2018-05-03T22:22:21.148Z,98168
2018-05-03T22:24:50.753Z,98169
2018-05-03T22:27:20.361Z,98164
2018-05-03T22:29:49.928Z,98162
2018-05-03T22:32:18.821Z,98167
2018-05-03T22:34:47.639Z,98167
2018-05-03T22:37:16.469Z,98170
2018-05-03T22:39:46.077Z,98172
2018-05-03T22:42:15.683Z,98178
2018-05-03T22:44:44.569Z,98187
2018-05-03T22:47:13.437Z,98186
2018-05-03T22:49:43.001Z,98188
2018-05-03T22:52:11.796Z,98188
2018-05-03T22:54:40.629Z,98182
2018-05-03T22:57:09.443Z,98184
2018-05-03T22:59:38.265Z,98189
2018-05-03T23:02:07.079Z,98187
2018-05-03T23:04:35.931Z,98181
2018-05-03T23:07:04.749Z,98186
2018-05-03T23:09:33.567Z,98182
2018-05-03T23:12:02.391Z,98183
2018-05-03T23:14:31.971Z,98187
2018-05-03T23:17:00.841Z,98186
2018-05-03T23:19:29.672Z,98181
2018-05-03T23:21:58.518Z,98178
2018-05-03T23:24:27.341Z,98174
2018-05-03T23:26:56.163Z,98173
2018-05-03T23:29:24.962Z,98170
2018-05-03T23:31:53.754Z,98176
2018-05-03T23:34:22.575Z,98177
2018-05-03T23:36:51.500Z,98175
2018-05-03T23:39:20.314Z,98173
2018-05-03T23:41:49.142Z,98179
2018-05-03T23:44:18.060Z,98178
2018-05-03T23:46:46.873Z,98178
2018-05-03T23:49:15.727Z,98177
2018-05-03T23:51:45.308Z,98170
2018-05-03T23:54:14.943Z,98165
2018-05-03T23:56:44.506Z,98164
2018-05-03T23:59:13.371Z,98170
